Dixie Prince — WDC2594 — position and weather

sailwx.info

Track history (hours):
 
Tides and Currents Weather Stations Pressure Air Temp Water Temp Dewpoint Dewpoint Depression Visibility Wind Speed Wind Dir Waves Ship Positions

Dixie Prince

Owner: Kirby Inland Marine LP, Houston, TX. More information available from US FCC via Universal Licensing System and Coast Guard Vessel Documentation Center.

Last reported at 2017-Dec-18 02:57 UTC. Time now 2017-Dec-18 05:17 UTC.
Position N 29°46' W 095°05'.

Length 76 m; draft 2.6 m.

Type: . MMSI: 366995380.

Date/timePositionNaut miles runAvg speedWind from/ knotsBaromVisibWave heightAir tempDewpointWater temp
2017-Dec-18 02:57N 29°46' W 095°05'2 4.0
2017-Dec-18 02:29N 29°45' W 095°04'2 4.1
2017-Dec-18 02:00N 29°44' W 095°01'0 0.3
2017-Dec-18 01:19N 29°44' W 095°01'0 1.0
2017-Dec-18 01:01N 29°44' W 095°02'3 4.9
2017-Dec-18 00:27N 29°45' W 095°04'2 4.0
2017-Dec-18 00:00N 29°46' W 095°06'0 0.5
2017-Dec-17 23:06N 29°46' W 095°07'1 3.4
2017-Dec-17 22:52N 29°45' W 095°06'1 0.3
2017-Dec-17 20:52N 29°46' W 095°06'2 3.9
2017-Dec-17 20:25N 29°44' W 095°07'2 6.2
2017-Dec-17 20:01N 29°44' W 095°09'3 5.5
2017-Dec-17 19:30N 29°44' W 095°13'1 1.0
2017-Dec-17 18:40N 29°44' W 095°13'0 0.0
2017-Dec-17 18:18N 29°44' W 095°13'0 0.0
2017-Dec-17 17:55N 29°44' W 095°13'0 0.3
2017-Dec-17 17:30N 29°44' W 095°13'0 0.0
2017-Dec-17 17:00N 29°44' W 095°13'0 0.0
2017-Dec-17 16:23N 29°44' W 095°13'0 0.0
2017-Dec-17 16:01N 29°44' W 095°13'0 0.0
2017-Dec-17 15:28N 29°44' W 095°13'1 1.8
2017-Dec-17 15:00N 29°44' W 095°12'2 4.5
2017-Dec-17 14:30N 29°45' W 095°10'2 4.6
2017-Dec-17 13:59N 29°44' W 095°07'2 5.0
2017-Dec-17 13:30N 29°46' W 095°05'0 0.1
2017-Dec-17 09:35N 29°46' W 095°05'1 1.1
2017-Dec-17 08:27N 29°45' W 095°06'1 0.3
2017-Dec-17 04:13N 29°46' W 095°06'1 6.0
2017-Dec-17 04:00N 29°45' W 095°04'2 3.7
2017-Dec-17 03:30N 29°44' W 095°03'0 0.2
2017-Dec-17 03:00N 29°44' W 095°03'2 3.6
2017-Dec-17 02:30N 29°45' W 095°04'1 0.2
2017-Dec-16 20:25N 29°46' W 095°05'0 0.1
2017-Dec-16 14:30N 29°46' W 095°05'1 0.1
2017-Dec-15 18:03N 29°47' W 095°04'1 5.0
2017-Dec-15 17:48N 29°46' W 095°05'0 0.1
2017-Dec-15 14:06N 29°46' W 095°05'1 0.4
2017-Dec-15 12:29N 29°46' W 095°05'0 0.2
2017-Dec-15 12:00N 29°46' W 095°05'2 3.8
2017-Dec-15 11:29N 29°45' W 095°04'1 1.5
2017-Dec-15 10:53N 29°44' W 095°03'0 0.2
2017-Dec-15 09:52N 29°44' W 095°03'2 6.5
2017-Dec-15 09:30N 29°46' W 095°05'1 0.2
2017-Dec-15 07:01N 29°46' W 095°06'0 5.0
2017-Dec-15 06:59N 29°46' W 095°05'2 5.1
2017-Dec-15 06:29N 29°44' W 095°07'3 5.1
2017-Dec-15 06:00N 29°45' W 095°10'2 4.9
2017-Dec-15 05:30N 29°44' W 095°13'2 4.9
2017-Dec-15 05:00N 29°44' W 095°15'0 0.8
2017-Dec-15 04:30N 29°43' W 095°16'0 0.0
2017-Dec-15 04:00N 29°43' W 095°16'6 3.9
2017-Dec-15 02:30N 29°44' W 095°09'4 2.0
2017-Dec-15 00:15N 29°46' W 095°05'1 0.2
2017-Dec-14 16:50N 29°45' W 095°06'2 5.8
2017-Dec-14 16:28N 29°44' W 095°08'3 5.7
2017-Dec-14 16:00N 29°45' W 095°10'5 5.0
2017-Dec-14 15:00N 29°43' W 095°16'1 2.8
2017-Dec-14 14:30N 29°45' W 095°17'0 0.0
2017-Dec-14 14:00N 29°45' W 095°17'1 2.9
2017-Dec-14 13:30N 29°44' W 095°16'2 4.8
2017-Dec-14 13:00N 29°44' W 095°13'2 4.9
2017-Dec-14 12:30N 29°45' W 095°11'2 5.0
2017-Dec-14 12:00N 29°44' W 095°08'0 0.3
2017-Dec-14 10:56N 29°44' W 095°08'0 0.5
2017-Dec-14 10:30N 29°44' W 095°08'4 6.3
2017-Dec-14 09:54N 29°47' W 095°04'0 0.1
2017-Dec-14 07:08N 29°47' W 095°04'0 0.5
2017-Dec-14 06:39N 29°47' W 095°04'0 0.5
2017-Dec-14 06:15N 29°47' W 095°04'0 1.1
2017-Dec-14 05:48N 29°47' W 095°04'1 2.6
2017-Dec-14 05:30N 29°46' W 095°05'2 3.2
2017-Dec-14 05:00N 29°46' W 095°06'2 3.8
2017-Dec-14 04:30N 29°44' W 095°07'3 6.7
2017-Dec-14 04:00N 29°45' W 095°11'3 3.1
2017-Dec-14 03:09N 29°44' W 095°14'0 0.0
2017-Dec-14 02:59N 29°44' W 095°14'1 2.5
2017-Dec-14 02:30N 29°44' W 095°15'2 3.6
2017-Dec-14 02:00N 29°45' W 095°17'0 0.1
2017-Dec-14 01:30N 29°45' W 095°17'0 0.1
2017-Dec-14 01:00N 29°45' W 095°17'2 3.2
2017-Dec-14 00:30N 29°44' W 095°16'2 4.3
2017-Dec-14 00:00N 29°43' W 095°13'1 2.8
2017-Dec-13 23:30N 29°44' W 095°12'2 4.4
2017-Dec-13 22:59N 29°44' W 095°09'3 5.4
2017-Dec-13 22:30N 29°45' W 095°06'1 1.0
2017-Dec-13 21:06N 29°46' W 095°06'1 0.2
2017-Dec-13 15:30N 29°46' W 095°05'2 3.5
2017-Dec-13 14:56N 29°45' W 095°06'0 0.0
2017-Dec-13 14:21N 29°45' W 095°06'0 0.1
2017-Dec-13 14:00N 29°45' W 095°06'1 1.0
2017-Dec-13 13:13N 29°45' W 095°06'2 4.7
2017-Dec-13 12:50N 29°47' W 095°04'0 0.0
2017-Dec-13 06:03N 29°47' W 095°05'1 6.0
2017-Dec-13 05:55N 29°46' W 095°05'1 0.3
2017-Dec-13 03:39N 29°46' W 095°05'0 0.4
2017-Dec-13 03:30N 29°46' W 095°05'0 0.0
2017-Dec-13 03:00N 29°46' W 095°05'0 0.5
2017-Dec-13 02:25N 29°46' W 095°05'1 0.2
2017-Dec-12 21:26N 29°45' W 095°06'2 5.2
2017-Dec-12 21:00N 29°44' W 095°09'3 5.2
2017-Dec-12 20:30N 29°45' W 095°12'3 5.0
2017-Dec-12 19:57N 29°43' W 095°14'2 0.3
2017-Dec-12 13:53N 29°44' W 095°16'0 0.3
2017-Dec-12 13:29N 29°44' W 095°16'0 0.0
2017-Dec-12 12:55N 29°44' W 095°16'0 0.1
2017-Dec-12 12:04N 29°44' W 095°16'0 0.0
2017-Dec-12 11:37N 29°44' W 095°16'0 0.0
2017-Dec-12 11:13N 29°44' W 095°16'0 0.0
2017-Dec-12 10:58N 29°44' W 095°16'0 0.0
2017-Dec-12 10:25N 29°44' W 095°16'0 0.0
2017-Dec-12 09:55N 29°44' W 095°16'0 0.0
2017-Dec-12 09:07N 29°44' W 095°16'0 0.0
2017-Dec-12 08:49N 29°44' W 095°16'0 0.0
2017-Dec-12 08:25N 29°44' W 095°16'0 0.0
2017-Dec-12 07:58N 29°44' W 095°16'0 0.0
2017-Dec-12 07:22N 29°44' W 095°16'0 0.0
2017-Dec-12 06:37N 29°44' W 095°16'0 0.0
2017-Dec-12 06:30N 29°44' W 095°16'0 0.1
2017-Dec-12 06:00N 29°44' W 095°16'1 2.0
2017-Dec-12 05:28N 29°43' W 095°15'1 3.0
2017-Dec-12 05:00N 29°44' W 095°13'2 3.1
2017-Dec-12 04:30N 29°44' W 095°12'2 4.1
2017-Dec-12 03:58N 29°44' W 095°09'2 4.6
2017-Dec-12 03:30N 29°44' W 095°07'2 0.4
2017-Dec-11 23:44N 29°45' W 095°06'1 0.5
2017-Dec-11 22:45N 29°46' W 095°05'1 0.1
2017-Dec-11 18:14N 29°45' W 095°06'2 0.9
2017-Dec-11 16:13N 29°47' W 095°05'1 4.2
2017-Dec-11 15:56N 29°46' W 095°04'2 4.0
2017-Dec-11 15:27N 29°44' W 095°03'2 3.0
2017-Dec-11 14:56N 29°45' W 095°04'2 4.2
2017-Dec-11 14:31N 29°44' W 095°03'0 0.3
2017-Dec-11 13:59N 29°44' W 095°03'0 0.0
2017-Dec-11 13:30N 29°44' W 095°03'2 4.9
2017-Dec-11 13:00N 29°46' W 095°05'1 2.5
2017-Dec-11 12:25N 29°46' W 095°07'0 0.0
2017-Dec-11 11:43N 29°46' W 095°07'0 0.0
2017-Dec-11 11:16N 29°46' W 095°07'0 0.0
2017-Dec-11 10:51N 29°46' W 095°07'0 0.0
2017-Dec-11 10:30N 29°46' W 095°07'1 0.9
2017-Dec-11 09:46N 29°45' W 095°06'0 1.4
2017-Dec-11 09:29N 29°46' W 095°06'0 0.1
2017-Dec-11 08:42N 29°46' W 095°06'1 4.2
2017-Dec-11 08:30N 29°46' W 095°05'1 0.6
2017-Dec-11 07:00N 29°47' W 095°05'2 3.2
2017-Dec-11 06:29N 29°45' W 095°06'0 0.0
2017-Dec-11 05:23N 29°45' W 095°06'1 3.4
2017-Dec-11 05:01N 29°46' W 095°05'1 0.4
2017-Dec-11 02:10N 29°47' W 095°04'0 0.1
2017-Dec-11 01:48N 29°47' W 095°04'1 4.2
2017-Dec-11 01:30N 29°46' W 095°05'1 0.9
2017-Dec-11 00:15N 29°45' W 095°06'2 1.4
2017-Dec-10 23:03N 29°47' W 095°05'0 6.0
2017-Dec-10 23:00N 29°46' W 095°05'1 1.6
2017-Dec-10 22:28N 29°46' W 095°05'3 5.5
2017-Dec-10 21:58N 29°44' W 095°03'2 5.1
2017-Dec-10 21:30N 29°42' W 095°01'3 5.3
2017-Dec-10 21:00N 29°41' W 094°59'3 6.6
2017-Dec-10 20:30N 29°38' W 094°58'2 4.4
2017-Dec-10 20:00N 29°37' W 094°60'1 2.4
2017-Dec-10 19:30N 29°37' W 095°01'0 0.0
2017-Dec-10 18:59N 29°37' W 095°01'0 0.0
2017-Dec-10 18:29N 29°37' W 095°01'0 0.0
2017-Dec-10 17:59N 29°37' W 095°01'0 0.0
2017-Dec-10 17:29N 29°37' W 095°01'0 0.0
2017-Dec-10 16:59N 29°37' W 095°01'0 0.0
2017-Dec-10 16:29N 29°37' W 095°01'0 0.0
2017-Dec-10 15:59N 29°37' W 095°01'0 0.0
2017-Dec-10 15:29N 29°37' W 095°01'0 0.0
2017-Dec-10 14:59N 29°37' W 095°01'0 0.0
2017-Dec-10 14:29N 29°37' W 095°01'0 0.0
2017-Dec-10 13:59N 29°37' W 095°01'0 0.0
2017-Dec-10 13:26N 29°37' W 095°01'0 0.0
2017-Dec-10 12:59N 29°37' W 095°01'0 0.0
2017-Dec-10 12:29N 29°37' W 095°01'0 0.0
2017-Dec-10 11:59N 29°37' W 095°01'0 0.0
2017-Dec-10 11:29N 29°37' W 095°01'0 0.0
2017-Dec-10 10:59N 29°37' W 095°01'0 0.0
2017-Dec-10 10:29N 29°37' W 095°01'0 0.0
2017-Dec-10 09:59N 29°37' W 095°01'0 0.0
2017-Dec-10 09:29N 29°37' W 095°01'0 0.0
2017-Dec-10 08:59N 29°37' W 095°01'0 0.0
2017-Dec-10 08:29N 29°37' W 095°01'0 0.0
2017-Dec-10 07:59N 29°37' W 095°01'0 0.0
2017-Dec-10 07:29N 29°37' W 095°01'0 0.0
2017-Dec-10 06:59N 29°37' W 095°01'0 0.0
2017-Dec-10 06:29N 29°37' W 095°01'0 0.0
2017-Dec-10 05:59N 29°37' W 095°01'0 0.0
2017-Dec-10 05:29N 29°37' W 095°01'0 0.0
2017-Dec-10 04:59N 29°37' W 095°01'0 0.0
2017-Dec-10 04:29N 29°37' W 095°01'0 0.0
2017-Dec-10 03:59N 29°37' W 095°01'0 0.0
2017-Dec-10 03:29N 29°37' W 095°01'0 0.0
2017-Dec-10 02:59N 29°37' W 095°01'0 0.0
2017-Dec-10 02:29N 29°37' W 095°01'0 0.0
2017-Dec-10 01:59N 29°37' W 095°01'0 0.0
2017-Dec-10 01:29N 29°37' W 095°01'0 0.0
2017-Dec-10 00:59N 29°37' W 095°01'0 0.0
2017-Dec-10 00:29N 29°37' W 095°01'0 0.0
2017-Dec-09 23:59N 29°37' W 095°01'0 0.0
2017-Dec-09 23:29N 29°37' W 095°01'0 0.0
2017-Dec-09 22:59N 29°37' W 095°01'0 0.0
2017-Dec-09 22:26N 29°37' W 095°01'0 0.0
2017-Dec-09 21:56N 29°37' W 095°01'0 0.0
2017-Dec-09 21:29N 29°37' W 095°01'0 0.0
2017-Dec-09 20:59N 29°37' W 095°01'0 0.0
2017-Dec-09 20:29N 29°37' W 095°01'0 0.0
2017-Dec-09 19:59N 29°37' W 095°01'0 0.0
2017-Dec-09 19:29N 29°37' W 095°01'0 0.0
2017-Dec-09 18:59N 29°37' W 095°01'0 0.0
2017-Dec-09 18:29N 29°37' W 095°01'0 0.0
2017-Dec-09 17:59N 29°37' W 095°01'0 0.0
2017-Dec-09 17:29N 29°37' W 095°01'0 0.0
2017-Dec-09 16:59N 29°37' W 095°01'0 0.0
2017-Dec-09 16:29N 29°37' W 095°01'0 0.0
2017-Dec-09 15:59N 29°37' W 095°01'0 0.0
2017-Dec-09 15:26N 29°37' W 095°01'0 0.0
2017-Dec-09 14:56N 29°37' W 095°01'0 0.0
2017-Dec-09 14:29N 29°37' W 095°01'0 0.0
2017-Dec-09 13:59N 29°37' W 095°01'0 0.0
2017-Dec-09 13:29N 29°37' W 095°01'0 0.0
2017-Dec-09 12:59N 29°37' W 095°01'0 0.0
2017-Dec-09 12:29N 29°37' W 095°01'0 0.0
2017-Dec-09 11:59N 29°37' W 095°01'0 0.0
2017-Dec-09 11:29N 29°37' W 095°01'0 0.0
2017-Dec-09 10:59N 29°37' W 095°01'0 0.0
2017-Dec-09 10:29N 29°37' W 095°01'0 0.0
2017-Dec-09 09:59N 29°37' W 095°01'0 0.0
2017-Dec-09 09:29N 29°37' W 095°01'0 0.0
2017-Dec-09 08:59N 29°37' W 095°01'0 0.0
2017-Dec-09 08:29N 29°37' W 095°01'0 0.0
2017-Dec-09 07:56N 29°37' W 095°01'0 0.0
2017-Dec-09 07:29N 29°37' W 095°01'0 0.0
2017-Dec-09 06:59N 29°37' W 095°01'0 0.0
2017-Dec-09 06:29N 29°37' W 095°01'0 0.0
2017-Dec-09 05:59N 29°37' W 095°01'0 0.0
2017-Dec-09 05:29N 29°37' W 095°01'0 0.0
2017-Dec-09 04:59N 29°37' W 095°01'0 0.0
2017-Dec-09 04:29N 29°37' W 095°01'0 0.0
2017-Dec-09 03:59N 29°37' W 095°01'0 0.0
2017-Dec-09 03:29N 29°37' W 095°01'0 0.0
2017-Dec-09 02:59N 29°37' W 095°01'0 0.0
2017-Dec-09 02:29N 29°37' W 095°01'0 0.0
2017-Dec-09 01:59N 29°37' W 095°01'0 0.0
2017-Dec-09 01:29N 29°37' W 095°01'0 0.0
2017-Dec-09 00:59N 29°37' W 095°01'0 0.0
2017-Dec-09 00:29N 29°37' W 095°01'0 0.0
2017-Dec-08 23:59N 29°37' W 095°01'0 0.0
2017-Dec-08 23:26N 29°37' W 095°01'0 0.0
2017-Dec-08 22:56N 29°37' W 095°01'0 0.0
2017-Dec-08 22:30N 29°37' W 095°01'0 0.5
2017-Dec-08 22:00N 29°37' W 095°01'3 5.5
2017-Dec-08 21:30N 29°37' W 094°58'3 5.2
2017-Dec-08 21:01N 29°39' W 094°58'3 5.8
2017-Dec-08 20:30N 29°42' W 095°00'3 5.6
2017-Dec-08 20:00N 29°44' W 095°02'3 6.1
2017-Dec-08 19:30N 29°46' W 095°05'0 0.1
2017-Dec-08 17:10N 29°46' W 095°05'2 0.6
2017-Dec-08 13:56N 29°47' W 095°04'2 3.7
2017-Dec-08 13:30N 29°46' W 095°05'0 0.1
2017-Dec-08 10:28N 29°46' W 095°06'2 4.3
2017-Dec-08 09:59N 29°48' W 095°04'2 3.8
2017-Dec-08 09:30N 29°46' W 095°05'1 0.1
2017-Dec-08 05:52N 29°46' W 095°06'0 0.7
2017-Dec-08 05:30N 29°46' W 095°05'  
Track history (hours):
 
Tides and Currents Weather Stations Pressure Air Temp Water Temp Dewpoint Dewpoint Depression Visibility Wind Speed Wind Dir Waves Ship Positions

Dixie Prince

Owner: Kirby Inland Marine LP, Houston, TX. More information available from US FCC via Universal Licensing System and Coast Guard Vessel Documentation Center.

Last reported at 2017-Dec-18 02:57 UTC. Time now 2017-Dec-18 05:17 UTC.
Position N 29°46' W 095°05'.

Length 76 m; draft 2.6 m.

Type: . MMSI: 366995380.

Date/timePositionNaut miles runAvg speedWind from/ knotsBaromVisibWave heightAir tempDewpointWater temp
2017-Dec-18 02:57N 29°46' W 095°05'2 4.0
2017-Dec-18 02:29N 29°45' W 095°04'2 4.1
2017-Dec-18 02:00N 29°44' W 095°01'0 0.3
2017-Dec-18 01:19N 29°44' W 095°01'0 1.0
2017-Dec-18 01:01N 29°44' W 095°02'3 4.9
2017-Dec-18 00:27N 29°45' W 095°04'2 4.0
2017-Dec-18 00:00N 29°46' W 095°06'0 0.5
2017-Dec-17 23:06N 29°46' W 095°07'1 3.4
2017-Dec-17 22:52N 29°45' W 095°06'1 0.3
2017-Dec-17 20:52N 29°46' W 095°06'2 3.9
2017-Dec-17 20:25N 29°44' W 095°07'2 6.2
2017-Dec-17 20:01N 29°44' W 095°09'3 5.5
2017-Dec-17 19:30N 29°44' W 095°13'1 1.0
2017-Dec-17 18:40N 29°44' W 095°13'0 0.0
2017-Dec-17 18:18N 29°44' W 095°13'0 0.0
2017-Dec-17 17:55N 29°44' W 095°13'0 0.3
2017-Dec-17 17:30N 29°44' W 095°13'0 0.0
2017-Dec-17 17:00N 29°44' W 095°13'0 0.0
2017-Dec-17 16:23N 29°44' W 095°13'0 0.0
2017-Dec-17 16:01N 29°44' W 095°13'0 0.0
2017-Dec-17 15:28N 29°44' W 095°13'1 1.8
2017-Dec-17 15:00N 29°44' W 095°12'2 4.5
2017-Dec-17 14:30N 29°45' W 095°10'2 4.6
2017-Dec-17 13:59N 29°44' W 095°07'2 5.0
2017-Dec-17 13:30N 29°46' W 095°05'0 0.1
2017-Dec-17 09:35N 29°46' W 095°05'1 1.1
2017-Dec-17 08:27N 29°45' W 095°06'1 0.3
2017-Dec-17 04:13N 29°46' W 095°06'1 6.0
2017-Dec-17 04:00N 29°45' W 095°04'2 3.7
2017-Dec-17 03:30N 29°44' W 095°03'0 0.2
2017-Dec-17 03:00N 29°44' W 095°03'2 3.6
2017-Dec-17 02:30N 29°45' W 095°04'1 0.2
2017-Dec-16 20:25N 29°46' W 095°05'0 0.1
2017-Dec-16 14:30N 29°46' W 095°05'1 0.1
2017-Dec-15 18:03N 29°47' W 095°04'1 5.0
2017-Dec-15 17:48N 29°46' W 095°05'0 0.1
2017-Dec-15 14:06N 29°46' W 095°05'1 0.4
2017-Dec-15 12:29N 29°46' W 095°05'0 0.2
2017-Dec-15 12:00N 29°46' W 095°05'2 3.8
2017-Dec-15 11:29N 29°45' W 095°04'1 1.5
2017-Dec-15 10:53N 29°44' W 095°03'0 0.2
2017-Dec-15 09:52N 29°44' W 095°03'2 6.5
2017-Dec-15 09:30N 29°46' W 095°05'1 0.2
2017-Dec-15 07:01N 29°46' W 095°06'0 5.0
2017-Dec-15 06:59N 29°46' W 095°05'2 5.1
2017-Dec-15 06:29N 29°44' W 095°07'3 5.1
2017-Dec-15 06:00N 29°45' W 095°10'2 4.9
2017-Dec-15 05:30N 29°44' W 095°13'2 4.9
2017-Dec-15 05:00N 29°44' W 095°15'0 0.8
2017-Dec-15 04:30N 29°43' W 095°16'0 0.0
2017-Dec-15 04:00N 29°43' W 095°16'6 3.9
2017-Dec-15 02:30N 29°44' W 095°09'4 2.0
2017-Dec-15 00:15N 29°46' W 095°05'1 0.2
2017-Dec-14 16:50N 29°45' W 095°06'2 5.8
2017-Dec-14 16:28N 29°44' W 095°08'3 5.7
2017-Dec-14 16:00N 29°45' W 095°10'5 5.0
2017-Dec-14 15:00N 29°43' W 095°16'1 2.8
2017-Dec-14 14:30N 29°45' W 095°17'0 0.0
2017-Dec-14 14:00N 29°45' W 095°17'1 2.9
2017-Dec-14 13:30N 29°44' W 095°16'2 4.8
2017-Dec-14 13:00N 29°44' W 095°13'2 4.9
2017-Dec-14 12:30N 29°45' W 095°11'2 5.0
2017-Dec-14 12:00N 29°44' W 095°08'0 0.3
2017-Dec-14 10:56N 29°44' W 095°08'0 0.5
2017-Dec-14 10:30N 29°44' W 095°08'4 6.3
2017-Dec-14 09:54N 29°47' W 095°04'0 0.1
2017-Dec-14 07:08N 29°47' W 095°04'0 0.5
2017-Dec-14 06:39N 29°47' W 095°04'0 0.5
2017-Dec-14 06:15N 29°47' W 095°04'0 1.1
2017-Dec-14 05:48N 29°47' W 095°04'1 2.6
2017-Dec-14 05:30N 29°46' W 095°05'2 3.2
2017-Dec-14 05:00N 29°46' W 095°06'2 3.8
2017-Dec-14 04:30N 29°44' W 095°07'3 6.7
2017-Dec-14 04:00N 29°45' W 095°11'3 3.1
2017-Dec-14 03:09N 29°44' W 095°14'0 0.0
2017-Dec-14 02:59N 29°44' W 095°14'1 2.5
2017-Dec-14 02:30N 29°44' W 095°15'2 3.6
2017-Dec-14 02:00N 29°45' W 095°17'0 0.1
2017-Dec-14 01:30N 29°45' W 095°17'0 0.1
2017-Dec-14 01:00N 29°45' W 095°17'2 3.2
2017-Dec-14 00:30N 29°44' W 095°16'2 4.3
2017-Dec-14 00:00N 29°43' W 095°13'1 2.8
2017-Dec-13 23:30N 29°44' W 095°12'2 4.4
2017-Dec-13 22:59N 29°44' W 095°09'3 5.4
2017-Dec-13 22:30N 29°45' W 095°06'1 1.0
2017-Dec-13 21:06N 29°46' W 095°06'1 0.2
2017-Dec-13 15:30N 29°46' W 095°05'2 3.5
2017-Dec-13 14:56N 29°45' W 095°06'0 0.0
2017-Dec-13 14:21N 29°45' W 095°06'0 0.1
2017-Dec-13 14:00N 29°45' W 095°06'1 1.0
2017-Dec-13 13:13N 29°45' W 095°06'2 4.7
2017-Dec-13 12:50N 29°47' W 095°04'0 0.0
2017-Dec-13 06:03N 29°47' W 095°05'1 6.0
2017-Dec-13 05:55N 29°46' W 095°05'1 0.3
2017-Dec-13 03:39N 29°46' W 095°05'0 0.4
2017-Dec-13 03:30N 29°46' W 095°05'0 0.0
2017-Dec-13 03:00N 29°46' W 095°05'0 0.5
2017-Dec-13 02:25N 29°46' W 095°05'1 0.2
2017-Dec-12 21:26N 29°45' W 095°06'2 5.2
2017-Dec-12 21:00N 29°44' W 095°09'3 5.2
2017-Dec-12 20:30N 29°45' W 095°12'3 5.0
2017-Dec-12 19:57N 29°43' W 095°14'2 0.3
2017-Dec-12 13:53N 29°44' W 095°16'0 0.3
2017-Dec-12 13:29N 29°44' W 095°16'0 0.0
2017-Dec-12 12:55N 29°44' W 095°16'0 0.1
2017-Dec-12 12:04N 29°44' W 095°16'0 0.0
2017-Dec-12 11:37N 29°44' W 095°16'0 0.0
2017-Dec-12 11:13N 29°44' W 095°16'0 0.0
2017-Dec-12 10:58N 29°44' W 095°16'0 0.0
2017-Dec-12 10:25N 29°44' W 095°16'0 0.0
2017-Dec-12 09:55N 29°44' W 095°16'0 0.0
2017-Dec-12 09:07N 29°44' W 095°16'0 0.0
2017-Dec-12 08:49N 29°44' W 095°16'0 0.0
2017-Dec-12 08:25N 29°44' W 095°16'0 0.0
2017-Dec-12 07:58N 29°44' W 095°16'0 0.0
2017-Dec-12 07:22N 29°44' W 095°16'0 0.0
2017-Dec-12 06:37N 29°44' W 095°16'0 0.0
2017-Dec-12 06:30N 29°44' W 095°16'0 0.1
2017-Dec-12 06:00N 29°44' W 095°16'1 2.0
2017-Dec-12 05:28N 29°43' W 095°15'1 3.0
2017-Dec-12 05:00N 29°44' W 095°13'2 3.1
2017-Dec-12 04:30N 29°44' W 095°12'2 4.1
2017-Dec-12 03:58N 29°44' W 095°09'2 4.6
2017-Dec-12 03:30N 29°44' W 095°07'2 0.4
2017-Dec-11 23:44N 29°45' W 095°06'1 0.5
2017-Dec-11 22:45N 29°46' W 095°05'1 0.1
2017-Dec-11 18:14N 29°45' W 095°06'2 0.9
2017-Dec-11 16:13N 29°47' W 095°05'1 4.2
2017-Dec-11 15:56N 29°46' W 095°04'2 4.0
2017-Dec-11 15:27N 29°44' W 095°03'2 3.0
2017-Dec-11 14:56N 29°45' W 095°04'2 4.2
2017-Dec-11 14:31N 29°44' W 095°03'0 0.3
2017-Dec-11 13:59N 29°44' W 095°03'0 0.0
2017-Dec-11 13:30N 29°44' W 095°03'2 4.9
2017-Dec-11 13:00N 29°46' W 095°05'1 2.5
2017-Dec-11 12:25N 29°46' W 095°07'0 0.0
2017-Dec-11 11:43N 29°46' W 095°07'0 0.0
2017-Dec-11 11:16N 29°46' W 095°07'0 0.0
2017-Dec-11 10:51N 29°46' W 095°07'0 0.0
2017-Dec-11 10:30N 29°46' W 095°07'1 0.9
2017-Dec-11 09:46N 29°45' W 095°06'0 1.4
2017-Dec-11 09:29N 29°46' W 095°06'0 0.1
2017-Dec-11 08:42N 29°46' W 095°06'1 4.2
2017-Dec-11 08:30N 29°46' W 095°05'1 0.6
2017-Dec-11 07:00N 29°47' W 095°05'2 3.2
2017-Dec-11 06:29N 29°45' W 095°06'0 0.0
2017-Dec-11 05:23N 29°45' W 095°06'1 3.4
2017-Dec-11 05:01N 29°46' W 095°05'1 0.4
2017-Dec-11 02:10N 29°47' W 095°04'0 0.1
2017-Dec-11 01:48N 29°47' W 095°04'1 4.2
2017-Dec-11 01:30N 29°46' W 095°05'1 0.9
2017-Dec-11 00:15N 29°45' W 095°06'2 1.4
2017-Dec-10 23:03N 29°47' W 095°05'0 6.0
2017-Dec-10 23:00N 29°46' W 095°05'1 1.6
2017-Dec-10 22:28N 29°46' W 095°05'3 5.5
2017-Dec-10 21:58N 29°44' W 095°03'2 5.1
2017-Dec-10 21:30N 29°42' W 095°01'3 5.3
2017-Dec-10 21:00N 29°41' W 094°59'3 6.6
2017-Dec-10 20:30N 29°38' W 094°58'2 4.4
2017-Dec-10 20:00N 29°37' W 094°60'1 2.4
2017-Dec-10 19:30N 29°37' W 095°01'0 0.0
2017-Dec-10 18:59N 29°37' W 095°01'0 0.0
2017-Dec-10 18:29N 29°37' W 095°01'0 0.0
2017-Dec-10 17:59N 29°37' W 095°01'0 0.0
2017-Dec-10 17:29N 29°37' W 095°01'0 0.0
2017-Dec-10 16:59N 29°37' W 095°01'0 0.0
2017-Dec-10 16:29N 29°37' W 095°01'0 0.0
2017-Dec-10 15:59N 29°37' W 095°01'0 0.0
2017-Dec-10 15:29N 29°37' W 095°01'0 0.0
2017-Dec-10 14:59N 29°37' W 095°01'0 0.0
2017-Dec-10 14:29N 29°37' W 095°01'0 0.0
2017-Dec-10 13:59N 29°37' W 095°01'0 0.0
2017-Dec-10 13:26N 29°37' W 095°01'0 0.0
2017-Dec-10 12:59N 29°37' W 095°01'0 0.0
2017-Dec-10 12:29N 29°37' W 095°01'0 0.0
2017-Dec-10 11:59N 29°37' W 095°01'0 0.0
2017-Dec-10 11:29N 29°37' W 095°01'0 0.0
2017-Dec-10 10:59N 29°37' W 095°01'0 0.0
2017-Dec-10 10:29N 29°37' W 095°01'0 0.0
2017-Dec-10 09:59N 29°37' W 095°01'0 0.0
2017-Dec-10 09:29N 29°37' W 095°01'0 0.0
2017-Dec-10 08:59N 29°37' W 095°01'0 0.0
2017-Dec-10 08:29N 29°37' W 095°01'0 0.0
2017-Dec-10 07:59N 29°37' W 095°01'0 0.0
2017-Dec-10 07:29N 29°37' W 095°01'0 0.0
2017-Dec-10 06:59N 29°37' W 095°01'0 0.0
2017-Dec-10 06:29N 29°37' W 095°01'0 0.0
2017-Dec-10 05:59N 29°37' W 095°01'0 0.0
2017-Dec-10 05:29N 29°37' W 095°01'0 0.0
2017-Dec-10 04:59N 29°37' W 095°01'0 0.0
2017-Dec-10 04:29N 29°37' W 095°01'0 0.0
2017-Dec-10 03:59N 29°37' W 095°01'0 0.0
2017-Dec-10 03:29N 29°37' W 095°01'0 0.0
2017-Dec-10 02:59N 29°37' W 095°01'0 0.0
2017-Dec-10 02:29N 29°37' W 095°01'0 0.0
2017-Dec-10 01:59N 29°37' W 095°01'0 0.0
2017-Dec-10 01:29N 29°37' W 095°01'0 0.0
2017-Dec-10 00:59N 29°37' W 095°01'0 0.0
2017-Dec-10 00:29N 29°37' W 095°01'0 0.0
2017-Dec-09 23:59N 29°37' W 095°01'0 0.0
2017-Dec-09 23:29N 29°37' W 095°01'0 0.0
2017-Dec-09 22:59N 29°37' W 095°01'0 0.0
2017-Dec-09 22:26N 29°37' W 095°01'0 0.0
2017-Dec-09 21:56N 29°37' W 095°01'0 0.0
2017-Dec-09 21:29N 29°37' W 095°01'0 0.0
2017-Dec-09 20:59N 29°37' W 095°01'0 0.0
2017-Dec-09 20:29N 29°37' W 095°01'0 0.0
2017-Dec-09 19:59N 29°37' W 095°01'0 0.0
2017-Dec-09 19:29N 29°37' W 095°01'0 0.0
2017-Dec-09 18:59N 29°37' W 095°01'0 0.0
2017-Dec-09 18:29N 29°37' W 095°01'0 0.0
2017-Dec-09 17:59N 29°37' W 095°01'0 0.0
2017-Dec-09 17:29N 29°37' W 095°01'0 0.0
2017-Dec-09 16:59N 29°37' W 095°01'0 0.0
2017-Dec-09 16:29N 29°37' W 095°01'0 0.0
2017-Dec-09 15:59N 29°37' W 095°01'0 0.0
2017-Dec-09 15:26N 29°37' W 095°01'0 0.0
2017-Dec-09 14:56N 29°37' W 095°01'0 0.0
2017-Dec-09 14:29N 29°37' W 095°01'0 0.0
2017-Dec-09 13:59N 29°37' W 095°01'0 0.0
2017-Dec-09 13:29N 29°37' W 095°01'0 0.0
2017-Dec-09 12:59N 29°37' W 095°01'0 0.0
2017-Dec-09 12:29N 29°37' W 095°01'0 0.0
2017-Dec-09 11:59N 29°37' W 095°01'0 0.0
2017-Dec-09 11:29N 29°37' W 095°01'0 0.0
2017-Dec-09 10:59N 29°37' W 095°01'0 0.0
2017-Dec-09 10:29N 29°37' W 095°01'0 0.0
2017-Dec-09 09:59N 29°37' W 095°01'0 0.0
2017-Dec-09 09:29N 29°37' W 095°01'0 0.0
2017-Dec-09 08:59N 29°37' W 095°01'0 0.0
2017-Dec-09 08:29N 29°37' W 095°01'0 0.0
2017-Dec-09 07:56N 29°37' W 095°01'0 0.0
2017-Dec-09 07:29N 29°37' W 095°01'0 0.0
2017-Dec-09 06:59N 29°37' W 095°01'0 0.0
2017-Dec-09 06:29N 29°37' W 095°01'0 0.0
2017-Dec-09 05:59N 29°37' W 095°01'0 0.0
2017-Dec-09 05:29N 29°37' W 095°01'0 0.0
2017-Dec-09 04:59N 29°37' W 095°01'0 0.0
2017-Dec-09 04:29N 29°37' W 095°01'0 0.0
2017-Dec-09 03:59N 29°37' W 095°01'0 0.0
2017-Dec-09 03:29N 29°37' W 095°01'0 0.0
2017-Dec-09 02:59N 29°37' W 095°01'0 0.0
2017-Dec-09 02:29N 29°37' W 095°01'0 0.0
2017-Dec-09 01:59N 29°37' W 095°01'0 0.0
2017-Dec-09 01:29N 29°37' W 095°01'0 0.0
2017-Dec-09 00:59N 29°37' W 095°01'0 0.0
2017-Dec-09 00:29N 29°37' W 095°01'0 0.0
2017-Dec-08 23:59N 29°37' W 095°01'0 0.0
2017-Dec-08 23:26N 29°37' W 095°01'0 0.0
2017-Dec-08 22:56N 29°37' W 095°01'0 0.0
2017-Dec-08 22:30N 29°37' W 095°01'0 0.5
2017-Dec-08 22:00N 29°37' W 095°01'3 5.5
2017-Dec-08 21:30N 29°37' W 094°58'3 5.2
2017-Dec-08 21:01N 29°39' W 094°58'3 5.8
2017-Dec-08 20:30N 29°42' W 095°00'3 5.6
2017-Dec-08 20:00N 29°44' W 095°02'3 6.1
2017-Dec-08 19:30N 29°46' W 095°05'0 0.1
2017-Dec-08 17:10N 29°46' W 095°05'2 0.6
2017-Dec-08 13:56N 29°47' W 095°04'2 3.7
2017-Dec-08 13:30N 29°46' W 095°05'0 0.1
2017-Dec-08 10:28N 29°46' W 095°06'2 4.3
2017-Dec-08 09:59N 29°48' W 095°04'2 3.8
2017-Dec-08 09:30N 29°46' W 095°05'1 0.1
2017-Dec-08 05:52N 29°46' W 095°06'0 0.7
2017-Dec-08 05:30N 29°46' W 095°05'  

Dump ship's entire track history